Time;durP1;ratioP1;P1;durP2;ratioP2;P2;SDS_P1;SDS_P2;PMS_P1;PMS_P2;Temp;Humidity;BMP_temperature;BMP_pressure;BME280_temperature;BME280_humidity;BME280_pressure;Samples;Min_cycle;Max_cycle;Signal;HPM_P1;HPM_P2
2022/08/28 00:00:08;;;;;;;10.90;9.90;;;20.90;99.90;;;;;;5084897;28;20445;-56
2022/08/28 00:02:34;;;;;;;12.33;10.17;;;20.90;99.90;;;;;;5088105;28;20452;-56
2022/08/28 00:05:00;;;;;;;10.23;9.00;;;20.80;99.90;;;;;;5088075;28;20449;-56
2022/08/28 00:07:26;;;;;;;11.40;10.27;;;20.80;99.90;;;;;;5085870;28;20198;-56
2022/08/28 00:09:51;;;;;;;11.47;9.70;;;20.80;99.90;;;;;;5087073;28;20439;-56
2022/08/28 00:12:17;;;;;;;11.10;10.00;;;20.70;99.90;;;;;;5087141;28;20632;-55
2022/08/28 00:14:43;;;;;;;12.53;11.30;;;20.70;99.90;;;;;;5088978;28;20210;-57
2022/08/28 00:17:08;;;;;;;13.00;11.70;;;20.70;99.90;;;;;;5087562;28;20183;-57
2022/08/28 00:19:34;;;;;;;11.60;10.50;;;20.70;99.90;;;;;;5087237;28;20191;-56
2022/08/28 00:22:00;;;;;;;16.13;14.50;;;20.60;99.90;;;;;;5087055;28;20202;-56
2022/08/28 00:24:25;;;;;;;18.23;14.20;;;20.50;99.90;;;;;;5086415;28;20664;-55
2022/08/28 00:29:35;;;;;;;19.63;16.23;;;20.50;99.90;;;;;;5087757;28;20256;-55
2022/08/28 00:32:01;;;;;;;18.17;16.27;;;20.90;99.90;;;;;;5085886;28;20468;-56
2022/08/28 00:34:27;;;;;;;19.10;16.10;;;20.40;99.90;;;;;;5082926;28;20187;-57
2022/08/28 00:36:53;;;;;;;18.50;16.50;;;20.40;99.90;;;;;;5083275;28;20455;-56
2022/08/28 00:39:19;;;;;;;20.13;17.67;;;20.30;99.90;;;;;;5084791;28;20273;-56
2022/08/28 00:41:45;;;;;;;20.17;18.00;;;20.20;99.90;;;;;;5068816;28;20457;-55
2022/08/28 00:44:15;;;;;;;19.37;17.27;;;20.20;99.90;;;;;;5087797;28;20181;-55
2022/08/28 00:46:43;;;;;;;19.97;17.10;;;20.20;99.90;;;;;;5089125;28;20175;-56
2022/08/28 00:49:10;;;;;;;22.80;18.03;;;20.10;99.90;;;;;;5088306;28;20505;-55
2022/08/28 00:54:22;;;;;;;19.23;17.23;;;20.00;99.90;;;;;;5083366;28;20515;-57
2022/08/28 00:56:48;;;;;;;20.60;18.03;;;20.00;99.90;;;;;;5088876;28;20415;-56
2022/08/28 00:59:17;;;;;;;19.33;16.73;;;19.90;99.90;;;;;;5087296;28;20448;-57
2022/08/28 01:01:45;;;;;;;20.80;17.97;;;20.00;99.90;;;;;;5088212;28;20483;-56
2022/08/28 01:04:16;;;;;;;21.57;18.80;;;20.00;99.90;;;;;;5087714;28;20475;-55
2022/08/28 01:06:44;;;;;;;22.77;17.73;;;20.00;99.90;;;;;;5087029;28;20459;-56
2022/08/28 01:09:11;;;;;;;21.83;18.73;;;20.10;99.90;;;;;;5088679;28;20481;-55
2022/08/28 01:11:42;;;;;;;24.27;19.77;;;20.10;99.90;;;;;;5092855;28;20487;-55
2022/08/28 01:14:10;;;;;;;21.53;18.70;;;20.10;99.90;;;;;;5092704;28;20455;-55
2022/08/28 01:16:37;;;;;;;20.73;17.40;;;20.10;99.90;;;;;;5091927;28;20445;-56
2022/08/28 01:19:08;;;;;;;21.13;17.70;;;20.00;99.90;;;;;;5092221;28;20501;-56
2022/08/28 01:21:49;;;;;;;19.97;17.83;;;20.10;99.90;;;;;;5092458;28;20484;-58
2022/08/28 01:24:17;;;;;;;22.03;18.40;;;20.10;99.90;;;;;;5089880;28;20440;-56
2022/08/28 01:26:43;;;;;;;20.40;17.70;;;20.10;99.90;;;;;;5091868;28;20772;-57
2022/08/28 01:29:10;;;;;;;18.93;16.53;;;20.10;99.90;;;;;;5092602;28;20464;-56
2022/08/28 01:31:38;;;;;;;21.33;16.17;;;20.10;99.90;;;;;;5091214;28;20201;-57
2022/08/28 01:34:05;;;;;;;18.07;16.27;;;19.90;99.90;;;;;;5091808;28;20988;-57
2022/08/28 01:36:32;;;;;;;17.70;15.83;;;19.90;99.90;;;;;;5089787;28;20545;-57
2022/08/28 01:39:09;;;;;;;21.23;16.23;;;19.90;99.90;;;;;;5092464;28;21000;-55
2022/08/28 01:41:39;;;;;;;15.80;13.40;;;20.00;99.90;;;;;;5091239;28;20444;-56
2022/08/28 01:44:05;;;;;;;16.20;14.60;;;19.90;99.90;;;;;;5091091;28;20945;-57
2022/08/28 01:46:31;;;;;;;16.03;14.30;;;19.80;99.90;;;;;;5092914;28;20490;-57
2022/08/28 01:48:58;;;;;;;16.30;14.20;;;19.80;99.90;;;;;;5088952;28;20203;-57
2022/08/28 01:51:23;;;;;;;16.83;14.60;;;19.80;99.90;;;;;;5089327;28;20452;-56
2022/08/28 01:53:49;;;;;;;16.97;15.20;;;19.80;99.90;;;;;;5090821;28;20953;-56
2022/08/28 01:56:15;;;;;;;17.70;15.80;;;19.60;99.90;;;;;;5091550;28;20521;-56
2022/08/28 01:58:42;;;;;;;19.63;15.87;;;19.60;99.90;;;;;;5091389;28;20193;-55
2022/08/28 02:01:09;;;;;;;18.90;16.77;;;19.60;99.90;;;;;;5091937;28;20441;-56
2022/08/28 02:03:35;;;;;;;19.93;16.97;;;19.70;99.90;;;;;;5092566;28;20435;-57
2022/08/28 02:06:01;;;;;;;24.87;19.27;;;19.80;99.90;;;;;;5089265;28;20440;-55
2022/08/28 02:08:26;;;;;;;21.77;19.23;;;19.80;99.90;;;;;;5091656;28;20309;-55
2022/08/28 02:10:52;;;;;;;26.90;21.73;;;19.80;99.90;;;;;;5089940;28;20202;-55
2022/08/28 02:13:18;;;;;;;23.20;19.47;;;19.80;99.90;;;;;;5091978;28;20274;-57
2022/08/28 02:15:44;;;;;;;24.20;20.57;;;19.80;99.90;;;;;;5090051;28;20244;-55
2022/08/28 02:18:11;;;;;;;29.20;21.63;;;19.90;99.90;;;;;;5089018;28;20721;-56
2022/08/28 02:20:37;;;;;;;28.30;21.47;;;19.90;99.90;;;;;;5091098;28;20414;-56
2022/08/28 02:23:03;;;;;;;23.40;20.40;;;19.80;99.90;;;;;;5090936;28;21173;-57
2022/08/28 02:25:29;;;;;;;25.30;20.67;;;19.80;99.90;;;;;;5091277;28;20531;-55
2022/08/28 02:27:54;;;;;;;28.33;21.23;;;19.90;99.90;;;;;;5091861;28;20214;-56
2022/08/28 02:30:20;;;;;;;28.20;22.07;;;19.80;99.90;;;;;;5088598;28;20458;-55
2022/08/28 02:32:46;;;;;;;29.73;22.20;;;19.80;99.90;;;;;;5091101;28;20451;-57
2022/08/28 02:35:14;;;;;;;25.07;19.80;;;19.30;99.90;;;;;;5091163;28;20445;-56
2022/08/28 02:37:43;;;;;;;24.63;21.97;;;20.00;99.90;;;;;;5091324;28;20297;-56
2022/08/28 02:40:09;;;;;;;30.20;21.33;;;20.00;99.90;;;;;;5089835;28;20506;-55
2022/08/28 02:42:35;;;;;;;25.00;21.80;;;19.90;99.90;;;;;;5088319;28;20423;-55
2022/08/28 02:45:01;;;;;;;25.03;21.57;;;19.80;99.90;;;;;;5091434;28;20502;-56
2022/08/28 02:47:26;;;;;;;26.57;21.87;;;19.90;99.90;;;;;;5091852;28;20664;-55
2022/08/28 02:49:52;;;;;;;26.13;20.90;;;19.90;99.90;;;;;;5089438;28;20711;-56
2022/08/28 02:52:18;;;;;;;30.53;23.47;;;19.90;99.90;;;;;;5088152;28;20270;-56
2022/08/28 02:54:45;;;;;;;27.10;22.90;;;20.00;99.90;;;;;;5086414;28;20190;-56
2022/08/28 02:57:11;;;;;;;27.20;22.50;;;19.90;99.90;;;;;;5086513;28;20444;-55
2022/08/28 02:59:37;;;;;;;32.80;24.10;;;19.80;99.90;;;;;;5088691;28;20426;-55
2022/08/28 03:02:05;;;;;;;28.20;22.67;;;19.80;99.90;;;;;;5089014;28;20434;-56
2022/08/28 03:04:35;;;;;;;32.60;23.80;;;19.70;99.90;;;;;;5090373;28;20798;-56
2022/08/28 03:07:00;;;;;;;27.77;22.67;;;19.70;99.90;;;;;;5090055;28;20540;-55
2022/08/28 03:09:26;;;;;;;29.57;24.73;;;19.70;99.90;;;;;;5091142;28;21064;-56
2022/08/28 03:11:53;;;;;;;31.43;23.30;;;19.70;99.90;;;;;;5086870;28;20674;-57
2022/08/28 03:14:19;;;;;;;28.43;23.60;;;19.70;99.90;;;;;;5088830;28;20194;-57
2022/08/28 03:16:45;;;;;;;34.73;25.33;;;19.80;99.90;;;;;;5088798;28;20456;-56
2022/08/28 03:19:10;;;;;;;31.07;23.70;;;19.70;99.90;;;;;;5090123;28;20773;-56
2022/08/28 03:21:36;;;;;;;28.87;24.67;;;19.70;99.90;;;;;;5088041;28;20190;-56
2022/08/28 03:24:03;;;;;;;31.60;23.73;;;19.70;99.90;;;;;;5091168;28;20198;-56
2022/08/28 03:26:28;;;;;;;31.90;24.60;;;19.70;99.90;;;;;;5089527;28;20427;-56
2022/08/28 03:28:56;;;;;;;25.67;21.50;;;19.70;99.90;;;;;;5090685;28;20773;-57
2022/08/28 03:31:24;;;;;;;30.50;21.87;;;19.70;99.90;;;;;;5087988;28;20182;-55
2022/08/28 03:33:51;;;;;;;30.47;22.57;;;19.70;99.90;;;;;;5089974;28;20448;-57
2022/08/28 03:36:23;;;;;;;25.10;22.17;;;19.70;99.90;;;;;;5089460;28;20953;-55
2022/08/28 03:38:51;;;;;;;25.90;20.20;;;19.80;99.90;;;;;;5090397;28;20904;-56
2022/08/28 03:41:19;;;;;;;26.93;20.70;;;19.70;99.90;;;;;;5088192;28;20442;-58
2022/08/28 03:43:45;;;;;;;23.20;19.70;;;19.70;99.90;;;;;;5090830;28;20415;-56
2022/08/28 03:46:16;;;;;;;21.57;18.90;;;19.70;99.90;;;;;;5087270;28;20908;-56
2022/08/28 03:48:42;;;;;;;29.13;20.20;;;19.70;99.90;;;;;;5089227;28;20456;-56
2022/08/28 03:51:13;;;;;;;20.67;17.30;;;19.70;99.90;;;;;;5089561;28;20549;-57
2022/08/28 03:53:39;;;;;;;20.17;16.43;;;19.70;99.90;;;;;;5090251;28;20864;-57
2022/08/28 03:56:08;;;;;;;17.33;15.50;;;19.60;99.90;;;;;;5088366;28;20423;-56
2022/08/28 03:58:33;;;;;;;18.20;15.90;;;19.60;99.90;;;;;;5088586;28;20444;-56
2022/08/28 04:00:59;;;;;;;19.37;14.83;;;19.60;99.90;;;;;;5088441;28;20938;-56
2022/08/28 04:03:24;;;;;;;18.37;15.00;;;19.50;99.90;;;;;;5090091;28;20236;-57
2022/08/28 04:05:51;;;;;;;20.00;15.10;;;19.60;99.90;;;;;;5083260;28;20198;-57
2022/08/28 04:08:18;;;;;;;20.53;14.40;;;17.90;99.90;;;;;;5089726;28;20206;-56
2022/08/28 04:10:45;;;;;;;15.30;12.87;;;19.50;99.90;;;;;;5086563;28;20444;-56
2022/08/28 04:13:12;;;;;;;16.60;13.33;;;19.40;99.90;;;;;;5088420;28;20441;-56
2022/08/28 04:15:38;;;;;;;16.70;14.10;;;19.30;99.90;;;;;;5087846;28;20463;-56
2022/08/28 04:18:04;;;;;;;15.37;13.57;;;19.30;99.90;;;;;;5086798;28;20444;-55
2022/08/28 04:20:29;;;;;;;13.87;12.47;;;19.30;99.90;;;;;;5087543;28;20926;-55
2022/08/28 04:22:55;;;;;;;16.80;14.43;;;19.40;99.90;;;;;;5089377;28;20663;-55
2022/08/28 04:25:22;;;;;;;17.57;13.47;;;19.40;99.90;;;;;;5088813;28;20269;-57
2022/08/28 04:27:48;;;;;;;18.07;14.37;;;19.40;99.90;;;;;;5089215;28;20189;-61
2022/08/28 04:30:14;;;;;;;17.80;14.63;;;19.40;99.90;;;;;;5087138;28;20450;-57
2022/08/28 04:32:39;;;;;;;20.87;15.10;;;19.50;99.90;;;;;;5090296;28;20411;-57
2022/08/28 04:35:07;;;;;;;18.73;15.87;;;19.60;99.90;;;;;;5089391;28;20185;-55
2022/08/28 04:37:33;;;;;;;26.60;16.13;;;19.60;99.90;;;;;;5082572;28;20187;-56
2022/08/28 04:39:59;;;;;;;19.50;16.57;;;19.50;99.90;;;;;;5083262;28;20477;-56
2022/08/28 04:42:24;;;;;;;21.00;16.93;;;19.40;99.90;;;;;;5089280;28;20178;-57
2022/08/28 04:44:55;;;;;;;20.43;16.93;;;19.40;99.90;;;;;;5090049;28;20190;-55
2022/08/28 04:47:22;;;;;;;22.43;16.50;;;19.40;99.90;;;;;;5093472;28;20285;-56
2022/08/28 04:49:48;;;;;;;19.17;15.63;;;19.20;99.90;;;;;;5091722;28;20552;-57
2022/08/28 04:52:14;;;;;;;19.50;15.10;;;19.10;99.90;;;;;;5094150;28;20436;-56
2022/08/28 04:54:40;;;;;;;18.70;14.33;;;19.10;99.90;;;;;;5084446;28;20444;-55
2022/08/28 04:57:06;;;;;;;19.93;14.00;;;19.10;99.90;;;;;;5092913;28;20220;-56
2022/08/28 04:59:32;;;;;;;17.90;13.80;;;19.10;99.90;;;;;;5087436;28;20596;-56
2022/08/28 05:01:57;;;;;;;16.47;12.17;;;19.20;99.90;;;;;;5091389;28;20449;-56
2022/08/28 05:04:23;;;;;;;16.30;12.43;;;19.20;99.90;;;;;;5072502;28;20189;-56
2022/08/28 05:06:48;;;;;;;16.67;12.80;;;19.20;99.90;;;;;;5089195;28;20706;-57
2022/08/28 05:09:16;;;;;;;12.13;10.93;;;19.20;99.90;;;;;;5092148;28;20206;-56
2022/08/28 05:11:43;;;;;;;15.43;11.27;;;19.30;99.90;;;;;;5091097;28;20647;-56
2022/08/28 05:14:09;;;;;;;14.53;10.27;;;19.10;99.90;;;;;;5090782;28;20441;-56
2022/08/28 05:16:41;;;;;;;12.90;10.37;;;19.10;99.90;;;;;;5089475;28;20447;-56
2022/08/28 05:19:07;;;;;;;13.87;8.93;;;19.00;99.90;;;;;;5089835;28;20448;-55
2022/08/28 05:21:33;;;;;;;12.57;8.90;;;19.20;99.90;;;;;;5089188;28;20448;-57
2022/08/28 05:23:59;;;;;;;16.33;9.23;;;19.20;99.90;;;;;;5092081;28;20447;-57
2022/08/28 05:26:25;;;;;;;10.63;9.13;;;19.20;99.90;;;;;;5091725;28;20213;-55
2022/08/28 05:28:53;;;;;;;12.77;8.27;;;19.20;94.90;;;;;;5090019;28;20215;-57
2022/08/28 05:31:21;;;;;;;11.27;8.23;;;19.20;93.40;;;;;;5067011;28;20541;-55
2022/08/28 05:33:48;;;;;;;13.10;7.77;;;19.10;84.10;;;;;;5090308;28;20455;-57
2022/08/28 05:36:16;;;;;;;12.10;7.60;;;19.20;85.90;;;;;;5093074;28;20432;-57
2022/08/28 05:38:43;;;;;;;12.00;8.20;;;19.10;76.50;;;;;;5089392;28;20541;-56
2022/08/28 05:41:09;;;;;;;15.70;7.80;;;19.00;25.50;;;;;;5089841;28;20535;-56
2022/08/28 05:43:35;;;;;;;12.80;7.17;;;19.10;26.60;;;;;;5091839;28;20540;-56
2022/08/28 05:46:09;;;;;;;9.00;6.40;;;19.10;28.50;;;;;;5091130;28;20194;-57
2022/08/28 05:48:35;;;;;;;13.43;7.30;;;19.00;30.20;;;;;;5090184;28;20479;-57
2022/08/28 05:51:13;;;;;;;9.70;7.10;;;19.00;23.00;;;;;;5091690;28;20419;-56
2022/08/28 05:53:41;;;;;;;13.40;6.40;;;18.90;10.10;;;;;;5088984;28;20452;-56
2022/08/28 05:56:13;;;;;;;10.63;7.00;;;18.80;6.30;;;;;;5083890;28;20441;-57
2022/08/28 05:58:39;;;;;;;10.60;6.00;;;18.70;4.20;;;;;;5087644;28;20449;-54
2022/08/28 06:01:21;;;;;;;13.90;6.10;;;18.90;2.70;;;;;;5090385;28;20423;-57
2022/08/28 06:03:53;;;;;;;9.90;5.87;;;18.90;1.00;;;;;;5089758;28;20436;-57
2022/08/28 06:06:20;;;;;;;12.00;5.60;;;19.00;1.00;;;;;;5088967;28;20444;-56
2022/08/28 06:08:46;;;;;;;13.50;6.10;;;;;;;;;;5088217;28;20469;-55
2022/08/28 06:11:12;;;;;;;12.23;6.37;;;18.90;1.00;;;;;;5088757;28;20439;-56
2022/08/28 06:13:37;;;;;;;11.60;5.90;;;18.90;1.00;;;;;;5089406;28;20433;-57
2022/08/28 06:16:08;;;;;;;12.37;6.07;;;19.00;1.00;;;;;;5091669;28;20306;-56
2022/08/28 06:18:33;;;;;;;9.43;5.87;;;19.10;1.00;;;;;;5090307;28;20270;-58
2022/08/28 06:21:01;;;;;;;12.77;5.83;;;19.20;1.00;;;;;;5091368;28;20543;-57
2022/08/28 06:23:27;;;;;;;11.70;5.70;;;19.20;1.00;;;;;;5089130;28;20202;-57
2022/08/28 06:25:52;;;;;;;8.97;5.40;;;19.30;1.00;;;;;;5087270;28;20543;-56
2022/08/28 06:28:21;;;;;;;8.63;5.50;;;19.10;1.00;;;;;;5088522;28;20552;-55
2022/08/28 06:30:48;;;;;;;10.90;5.97;;;19.10;1.00;;;;;;5089133;28;20236;-57
2022/08/28 06:33:17;;;;;;;12.43;5.93;;;19.10;1.00;;;;;;5085985;28;20471;-56
2022/08/28 06:35:46;;;;;;;11.63;5.60;;;19.20;1.00;;;;;;5089862;28;20483;-56
2022/08/28 06:38:12;;;;;;;10.63;5.43;;;19.10;1.00;;;;;;5088075;28;20941;-55
2022/08/28 06:40:43;;;;;;;9.50;4.67;;;19.30;1.00;;;;;;5086944;28;20577;-54
2022/08/28 06:43:09;;;;;;;9.97;4.80;;;19.30;1.00;;;;;;5089537;28;20491;-57
2022/08/28 06:45:42;;;;;;;9.60;5.00;;;19.60;1.00;;;;;;5087923;28;20452;-57
2022/08/28 06:48:10;;;;;;;10.30;4.50;;;19.80;1.00;;;;;;5087249;28;20214;-57
2022/08/28 06:50:41;;;;;;;8.77;5.27;;;19.70;1.00;;;;;;5089122;28;20506;-57
2022/08/28 06:53:09;;;;;;;8.23;4.33;;;19.50;1.00;;;;;;5088577;28;20775;-57
2022/08/28 06:55:35;;;;;;;8.17;4.30;;;19.40;1.00;;;;;;5086635;28;20480;-56
2022/08/28 06:58:02;;;;;;;10.63;4.60;;;19.40;1.00;;;;;;5089613;28;20843;-56
2022/08/28 07:00:28;;;;;;;10.20;4.57;;;19.40;1.00;;;;;;5088401;28;20460;-56
2022/08/28 07:02:53;;;;;;;6.33;5.23;;;19.40;1.00;;;;;;5086750;28;20501;-56
2022/08/28 07:05:19;;;;;;;9.97;4.43;;;19.50;1.00;;;;;;5089730;28;20680;-58
2022/08/28 07:07:45;;;;;;;9.10;4.80;;;19.60;1.00;;;;;;5088254;28;20194;-58
2022/08/28 07:10:10;;;;;;;10.37;4.80;;;19.90;1.00;;;;;;5089944;28;20552;-58
2022/08/28 07:12:36;;;;;;;9.23;4.20;;;20.00;1.00;;;;;;5088379;28;20537;-60
2022/08/28 07:15:03;;;;;;;8.23;4.37;;;20.10;1.00;;;;;;5085023;28;20609;-60
2022/08/28 07:17:29;;;;;;;12.37;4.47;;;20.00;1.00;;;;;;5088024;28;20187;-58
2022/08/28 07:19:54;;;;;;;8.97;4.13;;;19.80;1.00;;;;;;5071367;28;21077;-58
2022/08/28 07:22:21;;;;;;;8.67;4.40;;;19.70;1.00;;;;;;5088046;28;20448;-57
2022/08/28 07:24:47;;;;;;;7.47;3.60;;;19.60;1.00;;;;;;5086464;28;20182;-58
2022/08/28 07:27:13;;;;;;;11.93;5.87;;;19.60;1.00;;;;;;5088206;28;20487;-58
2022/08/28 07:29:39;;;;;;;13.73;4.40;;;19.80;1.00;;;;;;5083971;28;20217;-57
2022/08/28 07:32:05;;;;;;;9.43;4.17;;;19.90;1.00;;;;;;5087273;28;20444;-58
2022/08/28 07:34:31;;;;;;;9.03;4.00;;;19.80;1.00;;;;;;5089931;28;20482;-57
2022/08/28 07:37:02;;;;;;;9.00;4.50;;;19.90;1.00;;;;;;5083363;28;20540;-57
2022/08/28 07:39:28;;;;;;;7.73;4.30;;;19.90;1.00;;;;;;5056894;28;20299;-56
2022/08/28 07:41:54;;;;;;;14.40;4.50;;;20.00;1.00;;;;;;5043102;28;20455;-58
2022/08/28 07:47:05;;;;;;;10.37;4.20;;;19.90;1.00;;;;;;5048471;28;20334;-58
2022/08/28 07:49:32;;;;;;;6.60;4.10;;;19.90;1.00;;;;;;5048268;28;20481;-57
2022/08/28 07:51:59;;;;;;;14.87;4.30;;;19.90;1.00;;;;;;5046976;28;20950;-57
2022/08/28 07:54:24;;;;;;;9.80;3.90;;;19.80;1.00;;;;;;5047656;28;20438;-57
2022/08/28 07:56:51;;;;;;;5.53;3.77;;;19.80;1.00;;;;;;5047573;28;20468;-58
2022/08/28 07:59:17;;;;;;;10.00;4.70;;;19.90;1.00;;;;;;5047071;28;20718;-58
2022/08/28 08:01:45;;;;;;;10.17;4.07;;;19.70;1.00;;;;;;5047120;28;20530;-57
2022/08/28 08:04:14;;;;;;;8.80;3.80;;;19.90;1.00;;;;;;5048393;28;20454;-58
2022/08/28 08:06:41;;;;;;;11.63;4.93;;;19.90;1.00;;;;;;5044537;28;20432;-57
2022/08/28 08:09:11;;;;;;;14.43;4.17;;;20.00;1.00;;;;;;5043806;28;20475;-58
2022/08/28 08:11:37;;;;;;;8.17;4.40;;;20.00;1.00;;;;;;5044660;28;20453;-57
2022/08/28 08:14:04;;;;;;;9.60;3.93;;;20.00;1.00;;;;;;5047109;28;20532;-57
2022/08/28 08:16:33;;;;;;;6.87;3.53;;;20.30;1.00;;;;;;5047321;28;20616;-58
2022/08/28 08:19:00;;;;;;;10.00;4.03;;;20.40;1.00;;;;;;5045289;28;20951;-58
2022/08/28 08:21:26;;;;;;;8.13;3.43;;;20.50;1.00;;;;;;5046747;28;20532;-59
2022/08/28 08:23:52;;;;;;;8.87;3.97;;;20.50;1.00;;;;;;5047588;28;20433;-55
2022/08/28 08:26:21;;;;;;;9.27;3.70;;;20.60;1.00;;;;;;5048189;28;20442;-58
2022/08/28 08:28:49;;;;;;;8.67;3.77;;;20.60;1.00;;;;;;5048291;28;20479;-57
2022/08/28 08:31:21;;;;;;;10.93;4.23;;;20.70;1.00;;;;;;5046248;28;20467;-57
2022/08/28 08:33:51;;;;;;;11.07;4.17;;;20.50;1.00;;;;;;5045692;28;20467;-56
2022/08/28 08:36:18;;;;;;;8.63;3.87;;;20.40;1.00;;;;;;5044281;28;20509;-59
2022/08/28 08:38:45;;;;;;;8.17;3.70;;;20.40;1.00;;;;;;5051324;28;20455;-57
2022/08/28 08:41:26;;;;;;;8.80;3.47;;;20.60;1.00;;;;;;5067148;28;20528;-57
2022/08/28 08:44:02;;;;;;;12.73;4.50;;;20.30;1.00;;;;;;5066753;28;20854;-58
2022/08/28 08:46:58;;;;;;;7.67;4.13;;;20.50;1.00;;;;;;5063874;28;20424;-58
2022/08/28 08:49:28;;;;;;;9.90;4.40;;;20.70;1.00;;;;;;5063300;28;20481;-57
2022/08/28 08:52:10;;;;;;;18.83;4.10;;;20.80;1.00;;;;;;5065742;28;20468;-58
2022/08/28 08:54:43;;;;;;;8.67;3.43;;;21.00;1.00;;;;;;5066807;28;20487;-58
2022/08/28 08:57:12;;;;;;;10.40;4.20;;;21.20;1.00;;;;;;5067790;28;20942;-56
2022/08/28 08:59:38;;;;;;;7.40;3.70;;;21.20;1.00;;;;;;5065882;28;20532;-58
2022/08/28 09:02:16;;;;;;;7.10;3.80;;;21.30;1.00;;;;;;5068609;28;20538;-56
2022/08/28 09:04:57;;;;;;;8.90;4.13;;;21.30;1.00;;;;;;5064507;28;20486;-59
2022/08/28 09:07:38;;;;;;;7.23;4.00;;;21.30;1.00;;;;;;5067336;28;20450;-56
2022/08/28 09:10:13;;;;;;;8.73;4.10;;;21.30;1.00;;;;;;5065947;28;20530;-57
2022/08/28 09:12:56;;;;;;;7.40;4.37;;;21.40;1.00;;;;;;5068593;28;20453;-57
2022/08/28 09:15:30;;;;;;;12.93;4.33;;;21.50;1.00;;;;;;5065850;28;20452;-58
2022/08/28 09:18:19;;;;;;;9.37;4.43;;;21.60;1.00;;;;;;5065658;28;20472;-58
2022/08/28 09:20:49;;;;;;;7.63;4.40;;;21.50;1.00;;;;;;5065197;28;20449;-57
2022/08/28 09:23:15;;;;;;;9.17;5.07;;;21.60;1.00;;;;;;5064657;28;20449;-57
2022/08/28 09:25:47;;;;;;;13.80;5.37;;;21.60;1.00;;;;;;5066836;28;20473;-57
2022/08/28 09:28:20;;;;;;;10.80;4.70;;;21.60;1.00;;;;;;5065019;28;20183;-59
2022/08/28 09:30:56;;;;;;;5.90;5.07;;;21.90;1.00;;;;;;5067078;28;20571;-58
2022/08/28 09:33:41;;;;;;;9.33;5.00;;;22.00;1.00;;;;;;5070906;28;20495;-57
2022/08/28 09:36:30;;;;;;;8.50;4.37;;;22.20;1.00;;;;;;5071779;28;20938;-56
2022/08/28 09:39:06;;;;;;;13.53;5.33;;;22.30;1.00;;;;;;5077751;28;21084;-59
2022/08/28 09:44:25;;;;;;;10.77;5.40;;;22.10;1.00;;;;;;5093388;28;20443;-57
2022/08/28 09:46:51;;;;;;;11.80;5.60;;;22.00;1.00;;;;;;5092192;28;20432;-60
2022/08/28 09:49:24;;;;;;;8.07;4.53;;;22.00;1.00;;;;;;5092967;28;20253;-59
2022/08/28 09:51:49;;;;;;;11.60;5.03;;;22.10;1.00;;;;;;5092609;28;20407;-59
2022/08/28 09:54:33;;;;;;;10.40;5.27;;;22.10;1.00;;;;;;5092464;28;20967;-58
2022/08/28 09:56:59;;;;;;;10.83;5.17;;;21.90;1.00;;;;;;5091778;28;20236;-57
2022/08/28 09:59:27;;;;;;;7.60;4.50;;;21.90;1.00;;;;;;5092482;28;20442;-58
2022/08/28 10:02:10;;;;;;;7.20;5.07;;;22.00;1.00;;;;;;5092619;28;20467;-57
2022/08/28 10:04:50;;;;;;;10.77;5.27;;;22.20;1.00;;;;;;5088312;28;20480;-57
2022/08/28 10:07:40;;;;;;;9.00;5.23;;;22.40;1.00;;;;;;5089283;28;20452;-58
2022/08/28 10:10:16;;;;;;;12.73;5.13;;;22.70;1.00;;;;;;5089394;28;20814;-59
2022/08/28 10:13:00;;;;;;;8.07;4.57;;;22.70;1.00;;;;;;5091757;28;20451;-58
2022/08/28 10:15:32;;;;;;;9.60;4.43;;;22.80;1.00;;;;;;5091144;28;20502;-57
2022/08/28 10:18:03;;;;;;;6.67;4.30;;;23.10;1.00;;;;;;5091189;28;20968;-58
2022/08/28 10:20:41;;;;;;;9.00;4.03;;;22.80;1.00;;;;;;5069828;28;20868;-58
2022/08/28 10:23:27;;;;;;;12.50;4.07;;;22.70;1.00;;;;;;5089111;28;20440;-58
2022/08/28 10:26:33;;;;;;;5.83;3.77;;;22.80;1.00;;;;;;5089199;28;20858;-58
2022/08/28 10:29:13;;;;;;;7.93;4.53;;;22.90;1.00;;;;;;5078406;28;20471;-57
2022/08/28 10:32:11;;;;;;;9.80;4.60;;;23.40;1.00;;;;;;5087731;28;20793;-58
2022/08/28 10:34:45;;;;;;;9.50;4.40;;;23.60;1.00;;;;;;5089687;28;20444;-59
2022/08/28 10:37:37;;;;;;;9.80;4.07;;;23.30;1.00;;;;;;5088372;28;20788;-59
2022/08/28 10:40:24;;;;;;;8.50;4.43;;;23.50;1.00;;;;;;5090709;28;20527;-58
2022/08/28 10:42:56;;;;;;;10.77;4.27;;;23.70;1.00;;;;;;5088725;28;20440;-58
2022/08/28 10:45:24;;;;;;;8.30;4.10;;;23.90;1.00;;;;;;5089487;28;20452;-59
2022/08/28 10:47:56;;;;;;;8.20;4.27;;;23.80;1.00;;;;;;5090294;28;20527;-57
2022/08/28 10:50:49;;;;;;;8.40;4.60;;;23.80;1.00;;;;;;5089007;28;20476;-59
2022/08/28 10:53:27;;;;;;;8.70;4.60;;;23.70;1.00;;;;;;5082962;28;20440;-57
2022/08/28 10:56:18;;;;;;;8.17;4.10;;;23.20;1.00;;;;;;5089416;28;20444;-58
2022/08/28 10:58:45;;;;;;;10.77;6.60;;;23.10;1.00;;;;;;5076643;28;20977;-58
2022/08/28 11:01:18;;;;;;;7.57;4.70;;;23.10;1.00;;;;;;5085242;28;20445;-58
2022/08/28 11:03:50;;;;;;;10.83;4.77;;;23.30;1.00;;;;;;5082564;28;20930;-58
2022/08/28 11:06:34;;;;;;;7.83;4.23;;;23.30;1.00;;;;;;5090564;28;21145;-59
2022/08/28 11:09:24;;;;;;;8.03;4.93;;;23.20;1.00;;;;;;5088849;28;20520;-59
2022/08/28 11:11:55;;;;;;;7.30;3.77;;;23.10;1.00;;;;;;5089374;28;20445;-59
2022/08/28 11:14:28;;;;;;;7.03;4.33;;;23.00;1.00;;;;;;5085952;28;20810;-58
2022/08/28 11:17:09;;;;;;;8.33;4.37;;;23.10;1.00;;;;;;5089146;28;21169;-57
2022/08/28 11:19:40;;;;;;;9.27;4.57;;;23.30;1.00;;;;;;5074565;28;20433;-58
2022/08/28 11:22:14;;;;;;;9.63;4.70;;;23.50;1.00;;;;;;5089762;28;20924;-58
2022/08/28 11:25:13;;;;;;;9.73;4.70;;;23.70;1.00;;;;;;5089849;28;20449;-57
2022/08/28 11:27:59;;;;;;;8.63;4.90;;;24.00;1.00;;;;;;5089702;28;21137;-58
2022/08/28 11:30:31;;;;;;;6.63;4.53;;;23.90;1.00;;;;;;5067720;28;20497;-57
2022/08/28 11:33:00;;;;;;;5.83;4.93;;;23.60;1.00;;;;;;5089892;28;20440;-58
2022/08/28 11:35:28;;;;;;;9.20;5.07;;;23.60;1.00;;;;;;5085698;28;20457;-58
2022/08/28 11:37:56;;;;;;;5.57;4.63;;;23.40;1.00;;;;;;5090170;28;20423;-58
2022/08/28 11:40:34;;;;;;;9.13;4.67;;;23.30;1.00;;;;;;5088317;28;20483;-56
2022/08/28 11:43:15;;;;;;;12.83;4.60;;;23.40;1.00;;;;;;5089431;28;20847;-56
2022/08/28 11:45:53;;;;;;;7.83;4.60;;;23.30;1.00;;;;;;5088213;28;20440;-59
2022/08/28 11:48:24;;;;;;;15.10;5.10;;;23.10;1.00;;;;;;5088513;28;21368;-59
2022/08/28 11:51:19;;;;;;;10.53;4.33;;;23.10;1.00;;;;;;5086604;28;20845;-59
2022/08/28 11:53:57;;;;;;;11.93;4.60;;;23.20;1.00;;;;;;5085946;28;20510;-58
2022/08/28 11:56:40;;;;;;;7.43;4.30;;;23.30;1.00;;;;;;5088151;28;20443;-58
2022/08/28 11:59:18;;;;;;;7.07;4.37;;;23.30;1.00;;;;;;5086892;28;20453;-58
2022/08/28 12:01:44;;;;;;;6.27;4.27;;;23.30;1.00;;;;;;5083715;28;20504;-59
2022/08/28 12:04:19;;;;;;;8.60;4.50;;;23.40;1.00;;;;;;5089891;28;20443;-59
2022/08/28 12:06:48;;;;;;;6.63;3.63;;;23.40;1.00;;;;;;5089079;28;20190;-59
2022/08/28 12:09:38;;;;;;;11.00;5.37;;;23.50;1.00;;;;;;5083449;28;20456;-58
2022/08/28 12:12:10;;;;;;;7.47;4.10;;;23.50;1.00;;;;;;5085774;28;20463;-59
2022/08/28 12:14:38;;;;;;;8.80;3.90;;;23.60;1.00;;;;;;5088256;28;20452;-58
2022/08/28 12:17:27;;;;;;;6.83;3.30;;;23.80;1.00;;;;;;5088237;28;20452;-58
2022/08/28 12:20:09;;;;;;;6.13;3.63;;;23.90;1.00;;;;;;5086083;28;20541;-58
2022/08/28 12:22:56;;;;;;;7.40;3.97;;;24.20;1.00;;;;;;5088644;28;20471;-58
2022/08/28 12:25:37;;;;;;;7.07;3.27;;;24.30;1.00;;;;;;5085791;28;20452;-59
2022/08/28 12:28:17;;;;;;;8.30;3.83;;;24.30;1.00;;;;;;5087237;28;20445;-58
2022/08/28 12:31:17;;;;;;;8.40;3.73;;;24.20;1.00;;;;;;5086247;28;20448;-59
2022/08/28 12:34:07;;;;;;;7.10;3.60;;;24.10;1.00;;;;;;5080809;28;20453;-59
2022/08/28 12:36:33;;;;;;;6.80;3.50;;;24.40;1.00;;;;;;5088369;28;20456;-59
2022/08/28 12:38:59;;;;;;;6.30;3.83;;;24.40;1.00;;;;;;5089484;28;20465;-59
2022/08/28 12:41:26;;;;;;;7.43;3.53;;;24.30;1.00;;;;;;5087895;28;20235;-57
2022/08/28 12:43:58;;;;;;;5.33;3.60;;;24.10;1.00;;;;;;5082653;28;20191;-58
2022/08/28 12:46:36;;;;;;;8.27;4.40;;;24.00;1.00;;;;;;5086315;28;20459;-57
2022/08/28 12:49:23;;;;;;;6.70;4.27;;;24.00;1.00;;;;;;5086118;28;20472;-59
2022/08/28 12:51:49;;;;;;;7.27;4.07;;;24.10;1.00;;;;;;5053055;28;20474;-57
2022/08/28 12:54:16;;;;;;;8.00;4.33;;;24.10;1.00;;;;;;5086409;28;20448;-58
2022/08/28 12:56:42;;;;;;;8.10;3.87;;;23.90;1.00;;;;;;5081781;28;20444;-58
2022/08/28 12:59:49;;;;;;;5.90;4.30;;;24.00;1.00;;;;;;5084826;28;20471;-57
2022/08/28 13:02:29;;;;;;;10.30;4.27;;;24.30;1.00;;;;;;5083080;28;20487;-58
2022/08/28 13:05:04;;;;;;;6.83;3.67;;;24.40;1.00;;;;;;5080496;28;20950;-58
2022/08/28 13:08:01;;;;;;;7.63;4.40;;;24.70;1.00;;;;;;5090202;28;20452;-58
2022/08/28 13:10:50;;;;;;;9.27;4.33;;;25.10;1.00;;;;;;5075184;28;20488;-58